createdAt,value
2023-02-23T00:00:33.000Z,277.09
2023-02-23T00:02:40.000Z,277.02
2023-02-23T00:04:06.000Z,277.02
2023-02-23T00:06:12.000Z,276.96
2023-02-23T00:07:39.000Z,276.96
2023-02-23T00:09:45.000Z,276.9
2023-02-23T00:11:12.000Z,276.96
2023-02-23T00:13:18.000Z,276.84
2023-02-23T00:14:44.000Z,276.84
2023-02-23T00:16:50.000Z,276.84
2023-02-23T00:18:17.000Z,276.77
2023-02-23T00:20:23.000Z,276.77
2023-02-23T00:21:49.000Z,276.84
2023-02-23T00:23:56.000Z,276.84
2023-02-23T00:25:22.000Z,276.84
2023-02-23T00:27:28.000Z,276.84
2023-02-23T00:28:55.000Z,276.84
2023-02-23T00:31:01.000Z,276.84
2023-02-23T00:33:52.000Z,276.9
2023-02-23T00:35:18.000Z,276.96
2023-02-23T00:37:24.000Z,276.96
2023-02-23T00:38:51.000Z,276.96
2023-02-23T00:40:57.000Z,276.96
2023-02-23T00:42:24.000Z,276.96
2023-02-23T00:44:30.000Z,276.9
2023-02-23T00:45:56.000Z,276.9
2023-02-23T00:48:02.000Z,276.84
2023-02-23T00:49:29.000Z,276.84
2023-02-23T00:51:35.000Z,276.77
2023-02-23T00:53:02.000Z,276.84
2023-02-23T00:55:08.000Z,276.77
2023-02-23T00:56:34.000Z,276.77
2023-02-23T00:58:40.000Z,276.84
2023-02-23T01:00:07.000Z,276.9
2023-02-23T01:02:13.000Z,276.9
2023-02-23T01:03:40.000Z,276.96
2023-02-23T01:05:46.000Z,276.9
2023-02-23T01:07:12.000Z,276.9
2023-02-23T01:09:18.000Z,276.9
2023-02-23T01:12:10.000Z,276.9
2023-02-23T01:13:36.000Z,276.9
2023-02-23T01:15:42.000Z,276.84
2023-02-23T01:17:09.000Z,276.9
2023-02-23T01:19:15.000Z,276.84
2023-02-23T01:20:42.000Z,276.9
2023-02-23T01:22:48.000Z,276.9
2023-02-23T01:24:14.000Z,276.96
2023-02-23T01:26:20.000Z,276.96
2023-02-23T01:27:47.000Z,276.96
2023-02-23T01:29:53.000Z,276.96
2023-02-23T01:31:20.000Z,276.96
2023-02-23T01:33:26.000Z,276.9
2023-02-23T01:34:53.000Z,276.96
2023-02-23T01:36:59.000Z,276.96
2023-02-23T01:38:26.000Z,276.96
2023-02-23T01:40:32.000Z,277.02
2023-02-23T01:41:58.000Z,277.02
2023-02-23T01:44:04.000Z,276.96
2023-02-23T01:45:31.000Z,277.02
2023-02-23T01:47:37.000Z,277.02
2023-02-23T01:50:28.000Z,277.09
2023-02-23T01:51:55.000Z,277.09
2023-02-23T01:54:01.000Z,277.09
2023-02-23T01:55:27.000Z,277.09
2023-02-23T01:57:33.000Z,277.09
2023-02-23T01:59:00.000Z,277.09
2023-02-23T02:01:06.000Z,277.15
2023-02-23T02:02:33.000Z,277.15
2023-02-23T02:04:39.000Z,277.15
2023-02-23T02:06:05.000Z,277.21
2023-02-23T02:08:11.000Z,277.21
2023-02-23T02:09:38.000Z,277.21
2023-02-23T02:11:44.000Z,277.27
2023-02-23T02:13:10.000Z,277.21
2023-02-23T02:15:17.000Z,277.21
2023-02-23T02:16:43.000Z,277.27
2023-02-23T02:18:49.000Z,277.21
2023-02-23T02:20:16.000Z,277.27
2023-02-23T02:22:22.000Z,277.27
2023-02-23T02:23:48.000Z,277.34
2023-02-23T02:25:55.000Z,277.27
2023-02-23T02:28:46.000Z,277.27
2023-02-23T02:30:12.000Z,277.27
2023-02-23T02:32:18.000Z,277.27
2023-02-23T02:33:45.000Z,277.27
2023-02-23T02:35:51.000Z,277.27
2023-02-23T02:37:18.000Z,277.27
2023-02-23T02:39:24.000Z,277.27
2023-02-23T02:40:50.000Z,277.27
2023-02-23T02:42:57.000Z,277.27
2023-02-23T02:44:23.000Z,277.27
2023-02-23T02:46:29.000Z,277.27
2023-02-23T02:47:56.000Z,277.27
2023-02-23T02:50:02.000Z,277.21
2023-02-23T02:51:28.000Z,277.21
2023-02-23T02:53:34.000Z,277.27
2023-02-23T02:55:01.000Z,277.27
2023-02-23T02:57:07.000Z,277.21
2023-02-23T02:58:33.000Z,277.21
2023-02-23T03:00:40.000Z,277.21
2023-02-23T03:02:06.000Z,277.21
2023-02-23T03:04:13.000Z,277.21
2023-02-23T03:07:04.000Z,277.21
2023-02-23T03:08:30.000Z,277.21
2023-02-23T03:10:36.000Z,277.21
2023-02-23T03:12:03.000Z,277.21
2023-02-23T03:14:09.000Z,277.21
2023-02-23T03:15:36.000Z,277.21
2023-02-23T03:17:42.000Z,277.15
2023-02-23T03:19:08.000Z,277.21
2023-02-23T03:21:14.000Z,277.21
2023-02-23T03:22:42.000Z,277.21
2023-02-23T03:24:48.000Z,277.15
2023-02-23T03:26:14.000Z,277.21
2023-02-23T03:28:20.000Z,277.15
2023-02-23T03:29:47.000Z,277.21
2023-02-23T03:31:53.000Z,277.21
2023-02-23T03:33:20.000Z,277.15
2023-02-23T03:35:26.000Z,277.15
2023-02-23T03:36:52.000Z,277.15
2023-02-23T03:38:59.000Z,277.15
2023-02-23T03:40:25.000Z,277.15
2023-02-23T03:42:31.000Z,277.15
2023-02-23T03:45:23.000Z,277.15
2023-02-23T03:46:49.000Z,277.15
2023-02-23T03:48:55.000Z,277.15
2023-02-23T03:50:22.000Z,277.21
2023-02-23T03:52:28.000Z,277.21
2023-02-23T03:53:55.000Z,277.27
2023-02-23T03:56:01.000Z,277.27
2023-02-23T03:57:27.000Z,277.27
2023-02-23T03:59:33.000Z,277.27
2023-02-23T04:01:00.000Z,277.27
2023-02-23T04:03:06.000Z,277.27
2023-02-23T04:04:32.000Z,277.27
2023-02-23T04:06:38.000Z,277.34
2023-02-23T04:08:05.000Z,277.34
2023-02-23T04:10:11.000Z,277.34
2023-02-23T04:11:38.000Z,277.34
2023-02-23T04:13:44.000Z,277.34
2023-02-23T04:15:10.000Z,277.4
2023-02-23T04:17:17.000Z,277.4
2023-02-23T04:18:43.000Z,277.34
2023-02-23T04:20:49.000Z,277.34
2023-02-23T04:23:40.000Z,277.34
2023-02-23T04:25:07.000Z,277.4
2023-02-23T04:27:13.000Z,277.4
2023-02-23T04:28:40.000Z,277.4
2023-02-23T04:30:46.000Z,277.4
2023-02-23T04:32:12.000Z,277.4
2023-02-23T04:34:19.000Z,277.4
2023-02-23T04:35:45.000Z,277.4
2023-02-23T04:37:51.000Z,277.4
2023-02-23T04:39:18.000Z,277.4
2023-02-23T04:41:24.000Z,277.4
2023-02-23T04:42:50.000Z,277.4
2023-02-23T04:44:57.000Z,277.46
2023-02-23T04:46:23.000Z,277.46
2023-02-23T04:48:29.000Z,277.46
2023-02-23T04:49:56.000Z,277.52
2023-02-23T04:52:02.000Z,277.46
2023-02-23T04:53:28.000Z,277.52
2023-02-23T04:55:35.000Z,277.46
2023-02-23T04:57:01.000Z,277.46
2023-02-23T04:59:07.000Z,277.52
2023-02-23T05:01:58.000Z,277.52
2023-02-23T05:03:25.000Z,277.52
2023-02-23T05:05:31.000Z,277.52
2023-02-23T05:06:58.000Z,277.52
2023-02-23T05:09:04.000Z,277.52
2023-02-23T05:10:30.000Z,277.59
2023-02-23T05:12:36.000Z,277.59
2023-02-23T05:14:03.000Z,277.52
2023-02-23T05:16:09.000Z,277.59
2023-02-23T05:17:36.000Z,277.59
2023-02-23T05:19:42.000Z,277.65
2023-02-23T05:21:08.000Z,277.65
2023-02-23T05:23:14.000Z,277.59
2023-02-23T05:24:41.000Z,277.59
2023-02-23T05:26:47.000Z,277.65
2023-02-23T05:28:14.000Z,277.65
2023-02-23T05:30:20.000Z,277.59
2023-02-23T05:31:46.000Z,277.59
2023-02-23T05:33:53.000Z,277.65
2023-02-23T05:35:19.000Z,277.71
2023-02-23T05:37:25.000Z,277.65
2023-02-23T05:40:17.000Z,277.65
2023-02-23T05:41:43.000Z,277.65
2023-02-23T05:43:49.000Z,277.71
2023-02-23T05:45:16.000Z,277.71
2023-02-23T05:47:22.000Z,277.71
2023-02-23T05:48:48.000Z,277.71
2023-02-23T05:50:55.000Z,277.71
2023-02-23T05:52:21.000Z,277.71
2023-02-23T05:54:27.000Z,277.71
2023-02-23T05:55:54.000Z,277.71
2023-02-23T05:58:00.000Z,277.65
2023-02-23T05:59:27.000Z,277.71
2023-02-23T06:01:33.000Z,277.65
2023-02-23T06:02:59.000Z,277.65
2023-02-23T06:05:06.000Z,277.65
2023-02-23T06:06:32.000Z,277.71
2023-02-23T06:08:38.000Z,277.71
2023-02-23T06:10:05.000Z,277.65
2023-02-23T06:12:11.000Z,277.65
2023-02-23T06:13:38.000Z,277.71
2023-02-23T06:15:44.000Z,277.71
2023-02-23T06:18:35.000Z,277.71
2023-02-23T06:20:01.000Z,277.71
2023-02-23T06:22:07.000Z,277.71
2023-02-23T06:23:34.000Z,277.77
2023-02-23T06:25:40.000Z,277.71
2023-02-23T06:27:06.000Z,277.71
2023-02-23T06:29:13.000Z,277.71
2023-02-23T06:30:39.000Z,277.71
2023-02-23T06:32:45.000Z,277.71
2023-02-23T06:34:12.000Z,277.71
2023-02-23T06:36:18.000Z,277.71
2023-02-23T06:37:44.000Z,277.77
2023-02-23T06:39:51.000Z,277.84
2023-02-23T06:41:17.000Z,277.84
2023-02-23T06:43:24.000Z,277.84
2023-02-23T06:44:50.000Z,277.84
2023-02-23T06:46:56.000Z,277.84
2023-02-23T06:48:23.000Z,277.84
2023-02-23T06:50:29.000Z,277.84
2023-02-23T06:51:56.000Z,277.84
2023-02-23T06:54:02.000Z,277.84
2023-02-23T06:56:53.000Z,277.84
2023-02-23T06:58:19.000Z,277.84
2023-02-23T07:00:25.000Z,277.84
2023-02-23T07:01:52.000Z,277.84
2023-02-23T07:03:58.000Z,277.9
2023-02-23T07:05:25.000Z,277.9
2023-02-23T07:07:31.000Z,277.96
2023-02-23T07:08:57.000Z,277.9
2023-02-23T07:11:03.000Z,277.9
2023-02-23T07:12:30.000Z,277.96
2023-02-23T07:14:36.000Z,277.96
2023-02-23T07:16:03.000Z,277.96
2023-02-23T07:18:09.000Z,278.09
2023-02-23T07:19:35.000Z,278.09
2023-02-23T07:21:42.000Z,278.09
2023-02-23T07:23:08.000Z,278.09
2023-02-23T07:25:14.000Z,278.09
2023-02-23T07:26:41.000Z,278.15
2023-02-23T07:28:47.000Z,278.21
2023-02-23T07:30:13.000Z,278.21
2023-02-23T07:32:20.000Z,278.27
2023-02-23T07:35:11.000Z,278.27
2023-02-23T07:36:37.000Z,278.27
2023-02-23T07:38:44.000Z,278.21
2023-02-23T07:40:10.000Z,278.21
2023-02-23T07:42:16.000Z,278.27
2023-02-23T07:43:43.000Z,278.34
2023-02-23T07:45:49.000Z,278.34
2023-02-23T07:47:16.000Z,278.46
2023-02-23T07:49:22.000Z,278.52
2023-02-23T07:50:48.000Z,278.59
2023-02-23T07:52:54.000Z,278.65
2023-02-23T07:54:21.000Z,278.59
2023-02-23T07:56:27.000Z,278.65
2023-02-23T07:57:53.000Z,278.65
2023-02-23T08:00:00.000Z,278.65
2023-02-23T08:01:26.000Z,278.71
2023-02-23T08:03:32.000Z,278.71
2023-02-23T08:04:59.000Z,278.65
2023-02-23T08:07:05.000Z,278.71
2023-02-23T08:08:32.000Z,278.71
2023-02-23T08:10:38.000Z,278.71
2023-02-23T08:13:29.000Z,278.71
2023-02-23T08:14:56.000Z,278.84
2023-02-23T08:17:02.000Z,278.84
2023-02-23T08:18:28.000Z,278.84
2023-02-23T08:20:34.000Z,278.9
2023-02-23T08:22:01.000Z,278.96
2023-02-23T08:24:07.000Z,278.96
2023-02-23T08:25:34.000Z,278.96
2023-02-23T08:27:40.000Z,279.09
2023-02-23T08:29:06.000Z,279.09
2023-02-23T08:31:12.000Z,279.09
2023-02-23T08:32:39.000Z,279.15
2023-02-23T08:34:45.000Z,279.15
2023-02-23T08:36:12.000Z,279.21
2023-02-23T08:38:18.000Z,279.27
2023-02-23T08:39:44.000Z,279.34
2023-02-23T08:41:50.000Z,279.34
2023-02-23T08:43:17.000Z,279.4
2023-02-23T08:45:23.000Z,279.46
2023-02-23T08:46:50.000Z,279.46
2023-02-23T08:48:56.000Z,279.46
2023-02-23T08:51:47.000Z,279.59
2023-02-23T08:53:13.000Z,279.52
2023-02-23T08:55:19.000Z,279.52
2023-02-23T08:56:46.000Z,279.52
2023-02-23T08:58:52.000Z,279.59
2023-02-23T09:00:19.000Z,279.59
2023-02-23T09:02:25.000Z,279.65
2023-02-23T09:03:51.000Z,279.65
2023-02-23T09:05:57.000Z,279.71
2023-02-23T09:07:24.000Z,279.71
2023-02-23T09:09:30.000Z,279.77
2023-02-23T09:10:56.000Z,279.77
2023-02-23T09:13:03.000Z,279.77
2023-02-23T09:14:29.000Z,279.77
2023-02-23T09:16:35.000Z,279.84
2023-02-23T09:18:02.000Z,279.9
2023-02-23T09:20:08.000Z,279.9
2023-02-23T09:21:34.000Z,279.9
2023-02-23T09:23:40.000Z,279.96
2023-02-23T09:25:07.000Z,279.9
2023-02-23T09:27:13.000Z,279.96
2023-02-23T09:30:04.000Z,279.96
2023-02-23T09:31:31.000Z,280.02
2023-02-23T09:33:37.000Z,280.02
2023-02-23T09:35:03.000Z,280.02
2023-02-23T09:37:09.000Z,280.02
2023-02-23T09:38:36.000Z,280.09
2023-02-23T09:40:42.000Z,280.09
2023-02-23T09:42:08.000Z,280.09
2023-02-23T09:44:15.000Z,280.09
2023-02-23T09:45:41.000Z,280.21
2023-02-23T09:47:47.000Z,280.21
2023-02-23T09:49:14.000Z,280.27
2023-02-23T09:51:20.000Z,280.27
2023-02-23T09:52:47.000Z,280.34
2023-02-23T09:54:53.000Z,280.34
2023-02-23T09:56:19.000Z,280.34
2023-02-23T09:58:25.000Z,280.4
2023-02-23T09:59:52.000Z,280.46
2023-02-23T10:01:58.000Z,280.52
2023-02-23T10:03:25.000Z,280.59
2023-02-23T10:05:31.000Z,280.65
2023-02-23T10:08:22.000Z,280.71
2023-02-23T10:09:49.000Z,280.77
2023-02-23T10:11:55.000Z,280.84
2023-02-23T10:13:21.000Z,280.77
2023-02-23T10:15:27.000Z,280.9
2023-02-23T10:16:54.000Z,280.9
2023-02-23T10:19:00.000Z,280.96
2023-02-23T10:20:26.000Z,280.96
2023-02-23T10:22:33.000Z,280.96
2023-02-23T10:23:59.000Z,280.96
2023-02-23T10:26:05.000Z,280.96
2023-02-23T10:27:32.000Z,281.09
2023-02-23T10:29:38.000Z,281.02
2023-02-23T10:31:05.000Z,281.02
2023-02-23T10:33:11.000Z,281.02
2023-02-23T10:34:38.000Z,281.02
2023-02-23T10:36:44.000Z,281.02
2023-02-23T10:38:10.000Z,281.02
2023-02-23T10:40:16.000Z,281.02
2023-02-23T10:41:43.000Z,281.02
2023-02-23T10:43:49.000Z,281.09
2023-02-23T10:46:40.000Z,281.09
2023-02-23T10:48:07.000Z,281.09
2023-02-23T10:50:13.000Z,281.15
2023-02-23T10:51:39.000Z,281.21
2023-02-23T10:53:46.000Z,281.27
2023-02-23T10:55:12.000Z,281.27
2023-02-23T10:57:18.000Z,281.27
2023-02-23T10:58:45.000Z,281.27
2023-02-23T11:00:51.000Z,281.27
2023-02-23T11:02:17.000Z,281.34
2023-02-23T11:04:24.000Z,281.4
2023-02-23T11:05:51.000Z,281.4
2023-02-23T11:07:57.000Z,281.4
2023-02-23T11:09:23.000Z,281.4
2023-02-23T11:11:49.000Z,281.46
2023-02-23T11:13:15.000Z,281.46
2023-02-23T11:15:21.000Z,281.52
2023-02-23T11:17:04.000Z,281.59
2023-02-23T11:19:10.000Z,281.65
2023-02-23T11:20:36.000Z,281.65
2023-02-23T11:22:42.000Z,281.71
2023-02-23T11:25:33.000Z,281.77
2023-02-23T11:27:00.000Z,281.9
2023-02-23T11:29:06.000Z,281.96
2023-02-23T11:30:32.000Z,281.96
2023-02-23T11:32:39.000Z,282.02
2023-02-23T11:34:05.000Z,282.02
2023-02-23T11:36:11.000Z,282.02
2023-02-23T11:37:38.000Z,282.02
2023-02-23T11:39:44.000Z,281.96
2023-02-23T11:41:10.000Z,281.96
2023-02-23T11:43:17.000Z,281.9
2023-02-23T11:44:43.000Z,281.9
2023-02-23T11:46:49.000Z,281.9
2023-02-23T11:48:16.000Z,281.96
2023-02-23T11:50:22.000Z,281.96
2023-02-23T11:51:49.000Z,281.96
2023-02-23T11:53:55.000Z,282.02
2023-02-23T11:55:21.000Z,282.15
2023-02-23T11:57:27.000Z,282.21
2023-02-23T11:58:54.000Z,282.27
2023-02-23T12:01:00.000Z,282.27
2023-02-23T12:03:52.000Z,282.27
2023-02-23T12:05:18.000Z,282.21
2023-02-23T12:07:24.000Z,282.21
2023-02-23T12:08:51.000Z,282.15
2023-02-23T12:10:57.000Z,282.09
2023-02-23T12:12:23.000Z,282.15
2023-02-23T12:14:30.000Z,282.21
2023-02-23T12:15:56.000Z,282.34
2023-02-23T12:18:02.000Z,282.4
2023-02-23T12:19:29.000Z,282.46
2023-02-23T12:21:35.000Z,282.46
2023-02-23T12:23:01.000Z,282.46
2023-02-23T12:25:08.000Z,282.4
2023-02-23T12:26:34.000Z,282.46
2023-02-23T12:28:40.000Z,282.59
2023-02-23T12:30:07.000Z,282.59
2023-02-23T12:32:13.000Z,282.71
2023-02-23T12:33:40.000Z,282.77
2023-02-23T12:35:46.000Z,282.77
2023-02-23T12:37:12.000Z,282.77
2023-02-23T12:39:19.000Z,282.9
2023-02-23T12:42:10.000Z,282.84
2023-02-23T12:43:36.000Z,282.84
2023-02-23T12:45:42.000Z,282.9
2023-02-23T12:47:09.000Z,282.9
2023-02-23T12:49:15.000Z,282.9
2023-02-23T12:50:42.000Z,282.9
2023-02-23T12:52:48.000Z,282.84
2023-02-23T12:54:14.000Z,282.9
2023-02-23T12:56:20.000Z,282.9
2023-02-23T12:57:47.000Z,282.9
2023-02-23T12:59:53.000Z,282.9
2023-02-23T13:01:20.000Z,282.9
2023-02-23T13:03:27.000Z,282.9
2023-02-23T13:04:53.000Z,282.96
2023-02-23T13:06:59.000Z,282.96
2023-02-23T13:08:29.000Z,282.96
2023-02-23T13:10:35.000Z,283.09
2023-02-23T13:12:02.000Z,283.02
2023-02-23T13:14:08.000Z,283.09
2023-02-23T13:15:35.000Z,283.15
2023-02-23T13:17:41.000Z,283.15
2023-02-23T13:20:32.000Z,283.21
2023-02-23T13:21:58.000Z,283.15
2023-02-23T13:24:04.000Z,283.21
2023-02-23T13:25:31.000Z,283.21
2023-02-23T13:27:37.000Z,283.15
2023-02-23T13:29:04.000Z,283.15
2023-02-23T13:31:10.000Z,283.15
2023-02-23T13:32:36.000Z,283.09
2023-02-23T13:34:43.000Z,283.09
2023-02-23T13:36:09.000Z,283.15
2023-02-23T13:38:15.000Z,283.21
2023-02-23T13:39:42.000Z,283.34
2023-02-23T13:41:48.000Z,283.4
2023-02-23T13:43:15.000Z,283.4
2023-02-23T13:45:21.000Z,283.46
2023-02-23T13:46:47.000Z,283.4
2023-02-23T13:48:53.000Z,283.4
2023-02-23T13:50:23.000Z,283.52
2023-02-23T13:52:29.000Z,283.52
2023-02-23T13:53:56.000Z,283.59
2023-02-23T13:56:02.000Z,283.59
2023-02-23T13:58:53.000Z,283.59
2023-02-23T14:00:20.000Z,283.59
2023-02-23T14:02:26.000Z,283.59
2023-02-23T14:03:53.000Z,283.59
2023-02-23T14:05:59.000Z,283.59
2023-02-23T14:07:26.000Z,283.59
2023-02-23T14:09:32.000Z,283.52
2023-02-23T14:10:58.000Z,283.52
2023-02-23T14:13:04.000Z,283.46
2023-02-23T14:14:31.000Z,283.46
2023-02-23T14:16:37.000Z,283.46
2023-02-23T14:18:04.000Z,283.4
2023-02-23T14:20:10.000Z,283.34
2023-02-23T14:21:45.000Z,283.34
2023-02-23T14:23:51.000Z,283.34
2023-02-23T14:25:18.000Z,283.27
2023-02-23T14:27:24.000Z,283.27
2023-02-23T14:29:05.000Z,283.27
2023-02-23T14:31:11.000Z,283.21
2023-02-23T14:32:38.000Z,283.21
2023-02-23T14:34:44.000Z,283.21
2023-02-23T14:37:36.000Z,283.21
2023-02-23T14:39:02.000Z,283.15
2023-02-23T14:41:08.000Z,283.09
2023-02-23T14:42:35.000Z,283.09
2023-02-23T14:44:41.000Z,283.09
2023-02-23T14:46:07.000Z,283.02
2023-02-23T14:48:14.000Z,283.02
2023-02-23T14:49:40.000Z,282.96
2023-02-23T14:51:46.000Z,282.9
2023-02-23T14:53:13.000Z,282.9
2023-02-23T14:55:19.000Z,282.84
2023-02-23T14:56:45.000Z,282.84
2023-02-23T14:58:52.000Z,282.77
2023-02-23T15:00:18.000Z,282.77
2023-02-23T15:02:24.000Z,282.71
2023-02-23T15:03:51.000Z,282.65
2023-02-23T15:05:57.000Z,282.59
2023-02-23T15:07:24.000Z,282.59
2023-02-23T15:09:30.000Z,282.52
2023-02-23T15:10:56.000Z,282.46
2023-02-23T15:13:02.000Z,282.46
2023-02-23T15:15:54.000Z,282.4
2023-02-23T15:17:20.000Z,282.4
2023-02-23T15:19:27.000Z,282.34
2023-02-23T15:20:53.000Z,282.34
2023-02-23T15:22:59.000Z,282.34
2023-02-23T15:24:26.000Z,282.27
2023-02-23T15:26:32.000Z,282.27
2023-02-23T15:27:59.000Z,282.27
2023-02-23T15:30:05.000Z,282.21
2023-02-23T15:31:31.000Z,282.21
2023-02-23T15:33:38.000Z,282.27
2023-02-23T15:35:04.000Z,282.21
2023-02-23T15:37:10.000Z,282.21
2023-02-23T15:38:37.000Z,282.21
2023-02-23T15:40:48.000Z,282.21
2023-02-23T15:42:15.000Z,282.21
2023-02-23T15:44:21.000Z,282.21
2023-02-23T15:45:48.000Z,282.21
2023-02-23T15:47:54.000Z,282.21
2023-02-23T15:49:21.000Z,282.21
2023-02-23T15:51:27.000Z,282.15
2023-02-23T15:54:19.000Z,282.15
2023-02-23T15:55:45.000Z,282.15
2023-02-23T15:57:52.000Z,282.15
2023-02-23T15:59:18.000Z,282.15
2023-02-23T16:01:24.000Z,282.15
2023-02-23T16:02:51.000Z,282.15
2023-02-23T16:04:57.000Z,282.15
2023-02-23T16:06:24.000Z,282.15
2023-02-23T16:08:30.000Z,282.15
2023-02-23T16:09:56.000Z,282.15
2023-02-23T16:12:03.000Z,282.09
2023-02-23T16:13:29.000Z,282.09
2023-02-23T16:15:35.000Z,282.15
2023-02-23T16:17:02.000Z,282.15
2023-02-23T16:19:16.000Z,282.15
2023-02-23T16:20:42.000Z,282.15
2023-02-23T16:22:48.000Z,282.09
2023-02-23T16:24:15.000Z,282.09
2023-02-23T16:26:21.000Z,282.09
2023-02-23T16:27:48.000Z,282.09
2023-02-23T16:29:54.000Z,282.02
2023-02-23T16:32:45.000Z,282.02
2023-02-23T16:34:12.000Z,282.02
2023-02-23T16:36:18.000Z,281.96
2023-02-23T16:37:45.000Z,281.96
2023-02-23T16:39:51.000Z,281.9
2023-02-23T16:41:18.000Z,281.9
2023-02-23T16:43:24.000Z,281.84
2023-02-23T16:44:51.000Z,281.84
2023-02-23T16:46:57.000Z,281.84
2023-02-23T16:48:23.000Z,281.77
2023-02-23T16:50:29.000Z,281.71
2023-02-23T16:51:56.000Z,281.71
2023-02-23T16:54:02.000Z,281.65
2023-02-23T16:55:29.000Z,281.65
2023-02-23T16:57:35.000Z,281.65
2023-02-23T16:59:01.000Z,281.59
2023-02-23T17:01:08.000Z,281.59
2023-02-23T17:02:34.000Z,281.52
2023-02-23T17:04:40.000Z,281.46
2023-02-23T17:06:07.000Z,281.4
2023-02-23T17:08:13.000Z,281.34
2023-02-23T17:11:04.000Z,281.34
2023-02-23T17:12:31.000Z,281.34
2023-02-23T17:14:37.000Z,281.27
2023-02-23T17:16:04.000Z,281.21
2023-02-23T17:18:10.000Z,281.21
2023-02-23T17:19:36.000Z,281.21
2023-02-23T17:21:43.000Z,281.21
2023-02-23T17:23:09.000Z,281.21
2023-02-23T17:25:15.000Z,281.21
2023-02-23T17:26:42.000Z,281.21
2023-02-23T17:28:48.000Z,281.21
2023-02-23T17:30:14.000Z,281.27
2023-02-23T17:32:20.000Z,281.21
2023-02-23T17:33:47.000Z,281.27
2023-02-23T17:35:53.000Z,281.21
2023-02-23T17:37:20.000Z,281.21
2023-02-23T17:39:26.000Z,281.21
2023-02-23T17:40:52.000Z,281.21
2023-02-23T17:42:59.000Z,281.15
2023-02-23T17:44:25.000Z,281.21
2023-02-23T17:46:31.000Z,281.15
2023-02-23T17:49:22.000Z,281.15
2023-02-23T17:50:49.000Z,281.09
2023-02-23T17:52:55.000Z,281.02
2023-02-23T17:54:22.000Z,281.02
2023-02-23T17:56:28.000Z,281.02
2023-02-23T17:57:54.000Z,281.02
2023-02-23T18:00:00.000Z,281.02
2023-02-23T18:01:27.000Z,281.09
2023-02-23T18:03:33.000Z,281.02
2023-02-23T18:05:00.000Z,281.02
2023-02-23T18:07:06.000Z,281.09
2023-02-23T18:08:33.000Z,281.09
2023-02-23T18:10:39.000Z,281.09
2023-02-23T18:12:06.000Z,281.09
2023-02-23T18:14:12.000Z,281.09
2023-02-23T18:15:38.000Z,281.15
2023-02-23T18:17:44.000Z,281.09
2023-02-23T18:19:11.000Z,281.09
2023-02-23T18:21:17.000Z,281.09
2023-02-23T18:22:44.000Z,281.09
2023-02-23T18:24:50.000Z,281.09
2023-02-23T18:27:41.000Z,281.02
2023-02-23T18:29:07.000Z,281.02
2023-02-23T18:31:14.000Z,281.02
2023-02-23T18:32:40.000Z,281.09
2023-02-23T18:34:47.000Z,281.02
2023-02-23T18:36:13.000Z,281.02
2023-02-23T18:38:19.000Z,281.02
2023-02-23T18:39:46.000Z,281.02
2023-02-23T18:41:52.000Z,281.02
2023-02-23T18:43:18.000Z,281.02
2023-02-23T18:45:24.000Z,281.02
2023-02-23T18:46:51.000Z,281.02
2023-02-23T18:48:57.000Z,280.96
2023-02-23T18:50:24.000Z,280.96
2023-02-23T18:52:30.000Z,280.96
2023-02-23T18:53:57.000Z,280.96
2023-02-23T18:56:03.000Z,280.96
2023-02-23T18:57:29.000Z,280.96
2023-02-23T18:59:35.000Z,280.9
2023-02-23T19:01:02.000Z,280.9
2023-02-23T19:03:08.000Z,280.9
2023-02-23T19:05:59.000Z,280.9
2023-02-23T19:07:26.000Z,280.9
2023-02-23T19:09:32.000Z,280.84
2023-02-23T19:10:59.000Z,280.84
2023-02-23T19:13:05.000Z,280.84
2023-02-23T19:14:31.000Z,280.84
2023-02-23T19:16:53.000Z,280.84
2023-02-23T19:18:20.000Z,280.77
2023-02-23T19:20:26.000Z,280.77
2023-02-23T19:21:53.000Z,280.77
2023-02-23T19:23:59.000Z,280.71
2023-02-23T19:25:25.000Z,280.77
2023-02-23T19:27:31.000Z,280.77
2023-02-23T19:28:58.000Z,280.77
2023-02-23T19:31:04.000Z,280.71
2023-02-23T19:32:31.000Z,280.77
2023-02-23T19:34:37.000Z,280.71
2023-02-23T19:36:04.000Z,280.71
2023-02-23T19:38:10.000Z,280.71
2023-02-23T19:39:36.000Z,280.71
2023-02-23T19:41:42.000Z,280.71
2023-02-23T19:44:34.000Z,280.65
2023-02-23T19:46:00.000Z,280.71
2023-02-23T19:48:06.000Z,280.65
2023-02-23T19:49:33.000Z,280.65
2023-02-23T19:51:39.000Z,280.65
2023-02-23T19:53:06.000Z,280.65
2023-02-23T19:55:12.000Z,280.65
2023-02-23T19:56:38.000Z,280.65
2023-02-23T19:58:44.000Z,280.71
2023-02-23T20:00:11.000Z,280.71
2023-02-23T20:02:17.000Z,280.71
2023-02-23T20:03:44.000Z,280.65
2023-02-23T20:05:50.000Z,280.71
2023-02-23T20:07:17.000Z,280.71
2023-02-23T20:09:23.000Z,280.71
2023-02-23T20:10:49.000Z,280.71
2023-02-23T20:12:55.000Z,280.71
2023-02-23T20:14:22.000Z,280.71
2023-02-23T20:16:28.000Z,280.71
2023-02-23T20:17:54.000Z,280.71
2023-02-23T20:20:00.000Z,280.71
2023-02-23T20:22:52.000Z,280.71
2023-02-23T20:24:18.000Z,280.71
2023-02-23T20:26:25.000Z,280.71
2023-02-23T20:27:51.000Z,280.71
2023-02-23T20:29:57.000Z,280.65
2023-02-23T20:31:24.000Z,280.71
2023-02-23T20:33:30.000Z,280.65
2023-02-23T20:34:57.000Z,280.65
2023-02-23T20:37:03.000Z,280.71
2023-02-23T20:38:30.000Z,280.71
2023-02-23T20:40:36.000Z,280.65
2023-02-23T20:42:02.000Z,280.65
2023-02-23T20:44:08.000Z,280.65
2023-02-23T20:45:35.000Z,280.65
2023-02-23T20:47:41.000Z,280.65
2023-02-23T20:49:07.000Z,280.71
2023-02-23T20:51:14.000Z,280.65
2023-02-23T20:52:40.000Z,280.71
2023-02-23T20:54:46.000Z,280.65
2023-02-23T20:56:13.000Z,280.65
2023-02-23T20:58:19.000Z,280.59
2023-02-23T21:01:10.000Z,280.65
2023-02-23T21:02:36.000Z,280.65
2023-02-23T21:04:42.000Z,280.65
2023-02-23T21:06:09.000Z,280.65
2023-02-23T21:08:15.000Z,280.59
2023-02-23T21:09:41.000Z,280.59
2023-02-23T21:11:47.000Z,280.59
2023-02-23T21:13:14.000Z,280.52
2023-02-23T21:15:20.000Z,280.52
2023-02-23T21:16:46.000Z,280.59
2023-02-23T21:18:53.000Z,280.52
2023-02-23T21:20:19.000Z,280.59
2023-02-23T21:22:25.000Z,280.52
2023-02-23T21:23:52.000Z,280.52
2023-02-23T21:25:58.000Z,280.52
2023-02-23T21:27:24.000Z,280.52
2023-02-23T21:29:30.000Z,280.52
2023-02-23T21:30:57.000Z,280.52
2023-02-23T21:33:03.000Z,280.46
2023-02-23T21:34:30.000Z,280.46
2023-02-23T21:36:36.000Z,280.46
2023-02-23T21:39:28.000Z,280.4
2023-02-23T21:40:54.000Z,280.4
2023-02-23T21:43:00.000Z,280.4
2023-02-23T21:44:27.000Z,280.4
2023-02-23T21:46:33.000Z,280.34
2023-02-23T21:48:00.000Z,280.34
2023-02-23T21:50:06.000Z,280.34
2023-02-23T21:51:32.000Z,280.27
2023-02-23T21:53:38.000Z,280.27
2023-02-23T21:55:05.000Z,280.27
2023-02-23T21:57:23.000Z,280.27
2023-02-23T21:58:50.000Z,280.27
2023-02-23T22:00:56.000Z,280.21
2023-02-23T22:02:22.000Z,280.21
2023-02-23T22:04:29.000Z,280.21
2023-02-23T22:05:55.000Z,280.21
2023-02-23T22:08:01.000Z,280.21
2023-02-23T22:09:28.000Z,280.21
2023-02-23T22:11:34.000Z,280.15
2023-02-23T22:13:00.000Z,280.21
2023-02-23T22:15:07.000Z,280.21
2023-02-23T22:17:58.000Z,280.15
2023-02-23T22:19:25.000Z,280.15
2023-02-23T22:21:31.000Z,280.09
2023-02-23T22:22:57.000Z,280.09
2023-02-23T22:25:03.000Z,280.09
2023-02-23T22:26:30.000Z,280.09
2023-02-23T22:28:36.000Z,280.09
2023-02-23T22:30:02.000Z,280.09
2023-02-23T22:32:09.000Z,280.09
2023-02-23T22:33:36.000Z,280.09
2023-02-23T22:35:42.000Z,280.02
2023-02-23T22:37:09.000Z,280.02
2023-02-23T22:39:15.000Z,279.96
2023-02-23T22:40:41.000Z,280.02
2023-02-23T22:42:47.000Z,279.96
2023-02-23T22:44:14.000Z,279.96
2023-02-23T22:46:20.000Z,279.96
2023-02-23T22:47:47.000Z,279.96
2023-02-23T22:49:53.000Z,279.96
2023-02-23T22:51:19.000Z,279.9